sensor_id;sensor_type;location;lat;lon;timestamp;temperature;humidity
3648;DHT22;1840;48.892;15.312;2023-03-01T00:01:46;-3.20;91.50
3648;DHT22;1840;48.892;15.312;2023-03-01T00:04:14;-3.20;91.20
3648;DHT22;1840;48.892;15.312;2023-03-01T00:06:42;-3.20;91.30
3648;DHT22;1840;48.892;15.312;2023-03-01T00:09:12;-3.20;91.50
3648;DHT22;1840;48.892;15.312;2023-03-01T00:11:40;-3.30;91.50
3648;DHT22;1840;48.892;15.312;2023-03-01T00:14:10;-3.30;91.60
3648;DHT22;1840;48.892;15.312;2023-03-01T00:16:40;-3.20;91.60
3648;DHT22;1840;48.892;15.312;2023-03-01T00:19:12;-3.20;91.60
3648;DHT22;1840;48.892;15.312;2023-03-01T00:21:40;-3.20;91.60
3648;DHT22;1840;48.892;15.312;2023-03-01T00:24:09;-3.20;91.50
3648;DHT22;1840;48.892;15.312;2023-03-01T00:26:37;-3.30;91.30
3648;DHT22;1840;48.892;15.312;2023-03-01T00:29:06;-3.30;91.30
3648;DHT22;1840;48.892;15.312;2023-03-01T00:31:35;-3.20;91.40
3648;DHT22;1840;48.892;15.312;2023-03-01T00:34:05;-3.30;91.40
3648;DHT22;1840;48.892;15.312;2023-03-01T00:36:35;-3.30;91.30
3648;DHT22;1840;48.892;15.312;2023-03-01T00:39:04;-3.30;91.20
3648;DHT22;1840;48.892;15.312;2023-03-01T00:41:32;-3.40;91.20
3648;DHT22;1840;48.892;15.312;2023-03-01T00:44:01;-3.40;91.40
3648;DHT22;1840;48.892;15.312;2023-03-01T00:46:29;-3.40;91.30
3648;DHT22;1840;48.892;15.312;2023-03-01T00:48:59;-3.50;91.40
3648;DHT22;1840;48.892;15.312;2023-03-01T00:51:29;-3.60;91.00
3648;DHT22;1840;48.892;15.312;2023-03-01T00:53:59;-3.70;90.70
3648;DHT22;1840;48.892;15.312;2023-03-01T00:56:27;-3.90;90.60
3648;DHT22;1840;48.892;15.312;2023-03-01T00:58:56;-4.00;90.70
3648;DHT22;1840;48.892;15.312;2023-03-01T01:01:25;-4.10;90.70
3648;DHT22;1840;48.892;15.312;2023-03-01T01:04:00;-4.40;90.90
3648;DHT22;1840;48.892;15.312;2023-03-01T01:06:30;-4.50;91.30
3648;DHT22;1840;48.892;15.312;2023-03-01T01:08:59;-4.40;91.50
3648;DHT22;1840;48.892;15.312;2023-03-01T01:11:29;-4.40;91.50
3648;DHT22;1840;48.892;15.312;2023-03-01T01:13:57;-4.40;91.40
3648;DHT22;1840;48.892;15.312;2023-03-01T01:16:27;-4.40;91.30
3648;DHT22;1840;48.892;15.312;2023-03-01T01:18:57;-4.40;91.80
3648;DHT22;1840;48.892;15.312;2023-03-01T01:21:27;-4.40;92.00
3648;DHT22;1840;48.892;15.312;2023-03-01T01:23:56;-4.40;91.70
3648;DHT22;1840;48.892;15.312;2023-03-01T01:26:26;-4.40;91.70
3648;DHT22;1840;48.892;15.312;2023-03-01T01:28:56;-4.50;92.00
3648;DHT22;1840;48.892;15.312;2023-03-01T01:31:24;-4.50;92.30
3648;DHT22;1840;48.892;15.312;2023-03-01T01:33:54;-4.40;92.20
3648;DHT22;1840;48.892;15.312;2023-03-01T01:36:22;-4.30;92.00
3648;DHT22;1840;48.892;15.312;2023-03-01T01:38:52;-4.40;92.20
3648;DHT22;1840;48.892;15.312;2023-03-01T01:41:21;-4.50;92.10
3648;DHT22;1840;48.892;15.312;2023-03-01T01:46:34;-4.50;92.50
3648;DHT22;1840;48.892;15.312;2023-03-01T01:49:05;-4.30;92.70
3648;DHT22;1840;48.892;15.312;2023-03-01T01:51:37;-4.50;92.70
3648;DHT22;1840;48.892;15.312;2023-03-01T01:54:10;-4.50;92.80
3648;DHT22;1840;48.892;15.312;2023-03-01T01:56:43;-4.50;92.40
3648;DHT22;1840;48.892;15.312;2023-03-01T01:59:12;-4.60;92.20
3648;DHT22;1840;48.892;15.312;2023-03-01T02:01:40;-4.60;92.30
3648;DHT22;1840;48.892;15.312;2023-03-01T02:04:08;-4.60;92.20
3648;DHT22;1840;48.892;15.312;2023-03-01T02:06:39;-4.60;92.40
3648;DHT22;1840;48.892;15.312;2023-03-01T02:09:14;-4.60;92.50
3648;DHT22;1840;48.892;15.312;2023-03-01T02:11:43;-4.50;92.70
3648;DHT22;1840;48.892;15.312;2023-03-01T02:14:12;-4.50;92.50
3648;DHT22;1840;48.892;15.312;2023-03-01T02:16:40;-4.40;92.80
3648;DHT22;1840;48.892;15.312;2023-03-01T02:19:14;-4.20;92.80
3648;DHT22;1840;48.892;15.312;2023-03-01T02:21:51;-4.20;92.70
3648;DHT22;1840;48.892;15.312;2023-03-01T02:24:31;-4.10;92.50
3648;DHT22;1840;48.892;15.312;2023-03-01T02:27:01;-4.10;92.70
3648;DHT22;1840;48.892;15.312;2023-03-01T02:29:30;-4.10;92.50
3648;DHT22;1840;48.892;15.312;2023-03-01T02:32:00;-4.20;92.60
3648;DHT22;1840;48.892;15.312;2023-03-01T02:34:31;-4.20;92.60
3648;DHT22;1840;48.892;15.312;2023-03-01T02:37:01;-4.20;92.60
3648;DHT22;1840;48.892;15.312;2023-03-01T02:39:34;-4.10;92.50
3648;DHT22;1840;48.892;15.312;2023-03-01T02:42:05;-4.00;92.30
3648;DHT22;1840;48.892;15.312;2023-03-01T02:44:34;-4.00;92.40
3648;DHT22;1840;48.892;15.312;2023-03-01T02:47:03;-3.90;92.30
3648;DHT22;1840;48.892;15.312;2023-03-01T02:49:35;-3.90;92.20
3648;DHT22;1840;48.892;15.312;2023-03-01T02:52:27;-3.90;92.20
3648;DHT22;1840;48.892;15.312;2023-03-01T02:55:00;-3.90;92.10
3648;DHT22;1840;48.892;15.312;2023-03-01T02:57:32;-4.00;92.00
3648;DHT22;1840;48.892;15.312;2023-03-01T03:00:05;-4.00;92.10
3648;DHT22;1840;48.892;15.312;2023-03-01T03:02:35;-4.00;92.00
3648;DHT22;1840;48.892;15.312;2023-03-01T03:05:06;-4.00;92.00
3648;DHT22;1840;48.892;15.312;2023-03-01T03:07:36;-4.00;92.00
3648;DHT22;1840;48.892;15.312;2023-03-01T03:10:06;-4.00;91.80
3648;DHT22;1840;48.892;15.312;2023-03-01T03:12:34;-4.00;91.70
3648;DHT22;1840;48.892;15.312;2023-03-01T03:15:05;-4.00;91.60
3648;DHT22;1840;48.892;15.312;2023-03-01T03:17:35;-4.00;91.70
3648;DHT22;1840;48.892;15.312;2023-03-01T03:20:05;-4.10;91.60
3648;DHT22;1840;48.892;15.312;2023-03-01T03:22:33;-4.20;91.70
3648;DHT22;1840;48.892;15.312;2023-03-01T03:25:01;-4.20;91.70
3648;DHT22;1840;48.892;15.312;2023-03-01T03:27:29;-4.20;91.70
3648;DHT22;1840;48.892;15.312;2023-03-01T03:29:58;-4.20;91.80
3648;DHT22;1840;48.892;15.312;2023-03-01T03:32:27;-4.20;91.80
3648;DHT22;1840;48.892;15.312;2023-03-01T03:34:55;-4.30;91.80
3648;DHT22;1840;48.892;15.312;2023-03-01T03:37:25;-4.40;92.10
3648;DHT22;1840;48.892;15.312;2023-03-01T03:40:11;-4.40;92.20
3648;DHT22;1840;48.892;15.312;2023-03-01T03:42:42;-4.40;92.20
3648;DHT22;1840;48.892;15.312;2023-03-01T03:45:10;-4.50;92.20
3648;DHT22;1840;48.892;15.312;2023-03-01T03:47:39;-4.50;92.30
3648;DHT22;1840;48.892;15.312;2023-03-01T03:50:08;-4.70;92.50
3648;DHT22;1840;48.892;15.312;2023-03-01T03:52:36;-4.70;92.30
3648;DHT22;1840;48.892;15.312;2023-03-01T03:55:05;-4.60;92.30
3648;DHT22;1840;48.892;15.312;2023-03-01T03:57:37;-4.60;92.30
3648;DHT22;1840;48.892;15.312;2023-03-01T04:00:09;-4.60;92.50
3648;DHT22;1840;48.892;15.312;2023-03-01T04:02:41;-4.60;92.40
3648;DHT22;1840;48.892;15.312;2023-03-01T04:05:11;-4.70;92.80
3648;DHT22;1840;48.892;15.312;2023-03-01T04:07:41;-4.70;92.80
3648;DHT22;1840;48.892;15.312;2023-03-01T04:10:16;-4.80;93.00
3648;DHT22;1840;48.892;15.312;2023-03-01T04:12:44;-4.90;92.90
3648;DHT22;1840;48.892;15.312;2023-03-01T04:15:12;-4.90;93.00
3648;DHT22;1840;48.892;15.312;2023-03-01T04:17:42;-4.90;92.90
3648;DHT22;1840;48.892;15.312;2023-03-01T04:20:12;-4.90;92.50
3648;DHT22;1840;48.892;15.312;2023-03-01T04:22:40;-5.00;92.80
3648;DHT22;1840;48.892;15.312;2023-03-01T04:25:08;-5.00;92.90
3648;DHT22;1840;48.892;15.312;2023-03-01T04:27:40;-5.00;93.20
3648;DHT22;1840;48.892;15.312;2023-03-01T04:30:10;-5.20;93.10
3648;DHT22;1840;48.892;15.312;2023-03-01T04:32:38;-5.20;93.80
3648;DHT22;1840;48.892;15.312;2023-03-01T04:35:08;-5.30;93.40
3648;DHT22;1840;48.892;15.312;2023-03-01T04:37:36;-5.50;93.30
3648;DHT22;1840;48.892;15.312;2023-03-01T04:40:05;-5.60;94.00
3648;DHT22;1840;48.892;15.312;2023-03-01T04:42:39;-5.50;93.70
3648;DHT22;1840;48.892;15.312;2023-03-01T04:45:08;-5.50;93.80
3648;DHT22;1840;48.892;15.312;2023-03-01T04:47:40;-5.50;93.70
3648;DHT22;1840;48.892;15.312;2023-03-01T04:50:12;-5.50;93.80
3648;DHT22;1840;48.892;15.312;2023-03-01T04:52:41;-5.50;93.80
3648;DHT22;1840;48.892;15.312;2023-03-01T04:55:10;-5.60;94.00
3648;DHT22;1840;48.892;15.312;2023-03-01T04:57:38;-5.60;93.80
3648;DHT22;1840;48.892;15.312;2023-03-01T05:00:10;-5.60;94.00
3648;DHT22;1840;48.892;15.312;2023-03-01T05:02:48;-5.50;94.00
3648;DHT22;1840;48.892;15.312;2023-03-01T05:05:29;-5.50;94.00
3648;DHT22;1840;48.892;15.312;2023-03-01T05:08:00;-5.60;94.30
3648;DHT22;1840;48.892;15.312;2023-03-01T05:10:30;-5.70;94.10
3648;DHT22;1840;48.892;15.312;2023-03-01T05:12:59;-5.70;94.20
3648;DHT22;1840;48.892;15.312;2023-03-01T05:15:29;-5.70;94.50
3648;DHT22;1840;48.892;15.312;2023-03-01T05:17:58;-5.60;94.40
3648;DHT22;1840;48.892;15.312;2023-03-01T05:20:29;-5.60;94.20
3648;DHT22;1840;48.892;15.312;2023-03-01T05:22:59;-5.50;94.30
3648;DHT22;1840;48.892;15.312;2023-03-01T05:25:33;-5.50;94.20
3648;DHT22;1840;48.892;15.312;2023-03-01T05:28:02;-5.50;94.00
3648;DHT22;1840;48.892;15.312;2023-03-01T05:30:31;-5.40;93.60
3648;DHT22;1840;48.892;15.312;2023-03-01T05:33:00;-5.50;93.70
3648;DHT22;1840;48.892;15.312;2023-03-01T05:35:32;-5.50;93.40
3648;DHT22;1840;48.892;15.312;2023-03-01T05:38:00;-5.50;93.50
3648;DHT22;1840;48.892;15.312;2023-03-01T05:40:28;-5.60;93.60
3648;DHT22;1840;48.892;15.312;2023-03-01T05:42:56;-5.70;93.90
3648;DHT22;1840;48.892;15.312;2023-03-01T05:45:26;-5.50;94.20
3648;DHT22;1840;48.892;15.312;2023-03-01T05:47:54;-5.40;93.60
3648;DHT22;1840;48.892;15.312;2023-03-01T05:50:24;-5.50;93.60
3648;DHT22;1840;48.892;15.312;2023-03-01T05:52:59;-5.50;93.80
3648;DHT22;1840;48.892;15.312;2023-03-01T05:55:28;-5.40;93.80
3648;DHT22;1840;48.892;15.312;2023-03-01T05:57:58;-5.40;93.70
3648;DHT22;1840;48.892;15.312;2023-03-01T06:00:28;-5.30;93.80
3648;DHT22;1840;48.892;15.312;2023-03-01T06:02:57;-5.20;93.80
3648;DHT22;1840;48.892;15.312;2023-03-01T06:05:26;-5.40;93.60
3648;DHT22;1840;48.892;15.312;2023-03-01T06:07:54;-5.40;94.40
3648;DHT22;1840;48.892;15.312;2023-03-01T06:10:24;-5.30;93.80
3648;DHT22;1840;48.892;15.312;2023-03-01T06:12:52;-5.30;93.80
3648;DHT22;1840;48.892;15.312;2023-03-01T06:15:21;-5.20;93.60
3648;DHT22;1840;48.892;15.312;2023-03-01T06:17:49;-5.20;93.90
3648;DHT22;1840;48.892;15.312;2023-03-01T06:20:19;-5.20;94.00
3648;DHT22;1840;48.892;15.312;2023-03-01T06:22:47;-5.10;94.20
3648;DHT22;1840;48.892;15.312;2023-03-01T06:25:17;-5.00;94.10
3648;DHT22;1840;48.892;15.312;2023-03-01T06:27:47;-4.80;94.30
3648;DHT22;1840;48.892;15.312;2023-03-01T06:30:17;-4.60;93.90
3648;DHT22;1840;48.892;15.312;2023-03-01T06:32:46;-4.50;94.00
3648;DHT22;1840;48.892;15.312;2023-03-01T06:35:15;-4.50;94.30
3648;DHT22;1840;48.892;15.312;2023-03-01T06:37:45;-4.30;94.10
3648;DHT22;1840;48.892;15.312;2023-03-01T06:40:15;-4.50;94.20
3648;DHT22;1840;48.892;15.312;2023-03-01T06:42:49;-4.20;94.40
3648;DHT22;1840;48.892;15.312;2023-03-01T06:45:19;-4.00;94.00
3648;DHT22;1840;48.892;15.312;2023-03-01T06:47:48;-4.10;94.00
3648;DHT22;1840;48.892;15.312;2023-03-01T06:50:17;-3.90;94.10
3648;DHT22;1840;48.892;15.312;2023-03-01T06:52:45;-3.80;94.20
3648;DHT22;1840;48.892;15.312;2023-03-01T06:55:16;-3.70;93.70
3648;DHT22;1840;48.892;15.312;2023-03-01T06:57:44;-3.80;93.80
3648;DHT22;1840;48.892;15.312;2023-03-01T07:00:15;-3.80;94.00
3648;DHT22;1840;48.892;15.312;2023-03-01T07:02:43;-3.60;94.10
3648;DHT22;1840;48.892;15.312;2023-03-01T07:05:11;-3.40;93.80
3648;DHT22;1840;48.892;15.312;2023-03-01T07:07:39;-3.40;93.80
3648;DHT22;1840;48.892;15.312;2023-03-01T07:10:09;-3.20;93.80
3648;DHT22;1840;48.892;15.312;2023-03-01T07:12:37;-3.00;93.60
3648;DHT22;1840;48.892;15.312;2023-03-01T07:15:06;-3.00;92.90
3648;DHT22;1840;48.892;15.312;2023-03-01T07:17:37;-3.00;93.70
3648;DHT22;1840;48.892;15.312;2023-03-01T07:20:06;-2.80;92.90
3648;DHT22;1840;48.892;15.312;2023-03-01T07:22:33;-3.00;93.30
3648;DHT22;1840;48.892;15.312;2023-03-01T07:25:02;-2.80;93.40
3648;DHT22;1840;48.892;15.312;2023-03-01T07:27:30;-2.70;92.90
3648;DHT22;1840;48.892;15.312;2023-03-01T07:29:58;-2.60;92.80
3648;DHT22;1840;48.892;15.312;2023-03-01T07:32:26;-2.40;92.40
3648;DHT22;1840;48.892;15.312;2023-03-01T07:34:56;-2.40;92.40
3648;DHT22;1840;48.892;15.312;2023-03-01T07:37:24;-2.20;92.60
3648;DHT22;1840;48.892;15.312;2023-03-01T07:39:52;-2.00;92.10
3648;DHT22;1840;48.892;15.312;2023-03-01T07:42:20;-2.00;92.10
3648;DHT22;1840;48.892;15.312;2023-03-01T07:44:48;-2.20;92.00
3648;DHT22;1840;48.892;15.312;2023-03-01T07:47:16;-2.00;92.30
3648;DHT22;1840;48.892;15.312;2023-03-01T07:49:43;-1.70;91.90
3648;DHT22;1840;48.892;15.312;2023-03-01T07:52:13;-1.80;91.60
3648;DHT22;1840;48.892;15.312;2023-03-01T07:54:43;-1.70;91.60
3648;DHT22;1840;48.892;15.312;2023-03-01T07:57:12;-1.60;91.80
3648;DHT22;1840;48.892;15.312;2023-03-01T07:59:40;-1.40;91.00
3648;DHT22;1840;48.892;15.312;2023-03-01T08:02:08;-1.60;91.10
3648;DHT22;1840;48.892;15.312;2023-03-01T08:04:37;-1.60;91.10
3648;DHT22;1840;48.892;15.312;2023-03-01T08:07:05;-1.50;91.40
3648;DHT22;1840;48.892;15.312;2023-03-01T08:09:36;-1.40;91.70
3648;DHT22;1840;48.892;15.312;2023-03-01T08:12:05;-1.10;91.40
3648;DHT22;1840;48.892;15.312;2023-03-01T08:14:33;-1.20;91.30
3648;DHT22;1840;48.892;15.312;2023-03-01T08:17:01;-1.20;91.60
3648;DHT22;1840;48.892;15.312;2023-03-01T08:19:30;-1.30;90.90
3648;DHT22;1840;48.892;15.312;2023-03-01T08:21:59;-1.50;91.10
3648;DHT22;1840;48.892;15.312;2023-03-01T08:24:29;-1.60;91.20
3648;DHT22;1840;48.892;15.312;2023-03-01T08:26:58;-2.00;91.40
3648;DHT22;1840;48.892;15.312;2023-03-01T08:29:26;-1.80;91.90
3648;DHT22;1840;48.892;15.312;2023-03-01T08:31:54;-1.60;91.80
3648;DHT22;1840;48.892;15.312;2023-03-01T08:34:22;-1.50;91.90
3648;DHT22;1840;48.892;15.312;2023-03-01T08:36:50;-1.50;91.80
3648;DHT22;1840;48.892;15.312;2023-03-01T08:39:20;-1.60;92.10
3648;DHT22;1840;48.892;15.312;2023-03-01T08:41:48;-1.60;92.10
3648;DHT22;1840;48.892;15.312;2023-03-01T08:44:17;-1.50;91.90
3648;DHT22;1840;48.892;15.312;2023-03-01T08:46:46;-1.40;92.60
3648;DHT22;1840;48.892;15.312;2023-03-01T08:49:17;-0.80;92.80
3648;DHT22;1840;48.892;15.312;2023-03-01T08:51:46;-0.30;92.60
3648;DHT22;1840;48.892;15.312;2023-03-01T08:54:16;0.20;92.60
3648;DHT22;1840;48.892;15.312;2023-03-01T08:56:45;0.70;91.60
3648;DHT22;1840;48.892;15.312;2023-03-01T08:59:14;0.90;90.80
3648;DHT22;1840;48.892;15.312;2023-03-01T09:01:45;1.10;91.00
3648;DHT22;1840;48.892;15.312;2023-03-01T09:04:14;0.80;90.60
3648;DHT22;1840;48.892;15.312;2023-03-01T09:06:43;0.70;90.40
3648;DHT22;1840;48.892;15.312;2023-03-01T09:09:13;0.70;90.70
3648;DHT22;1840;48.892;15.312;2023-03-01T09:11:43;1.10;90.00
3648;DHT22;1840;48.892;15.312;2023-03-01T09:14:13;1.20;89.80
3648;DHT22;1840;48.892;15.312;2023-03-01T09:16:41;1.60;89.70
3648;DHT22;1840;48.892;15.312;2023-03-01T09:19:11;1.80;89.30
3648;DHT22;1840;48.892;15.312;2023-03-01T09:21:39;1.90;88.70
3648;DHT22;1840;48.892;15.312;2023-03-01T09:24:12;2.00;88.80
3648;DHT22;1840;48.892;15.312;2023-03-01T09:26:41;2.10;87.80
3648;DHT22;1840;48.892;15.312;2023-03-01T09:29:09;2.00;88.00
3648;DHT22;1840;48.892;15.312;2023-03-01T09:31:37;2.10;87.70
3648;DHT22;1840;48.892;15.312;2023-03-01T09:34:05;1.90;87.40
3648;DHT22;1840;48.892;15.312;2023-03-01T09:36:35;1.70;89.00
3648;DHT22;1840;48.892;15.312;2023-03-01T09:39:04;2.00;88.30
3648;DHT22;1840;48.892;15.312;2023-03-01T09:41:43;2.00;87.30
3648;DHT22;1840;48.892;15.312;2023-03-01T09:44:20;1.90;88.80
3648;DHT22;1840;48.892;15.312;2023-03-01T09:46:49;1.80;88.10
3648;DHT22;1840;48.892;15.312;2023-03-01T09:49:19;1.70;89.00
3648;DHT22;1840;48.892;15.312;2023-03-01T09:51:55;1.80;88.60
3648;DHT22;1840;48.892;15.312;2023-03-01T09:54:24;1.80;89.00
3648;DHT22;1840;48.892;15.312;2023-03-01T09:57:03;2.00;88.10
3648;DHT22;1840;48.892;15.312;2023-03-01T09:59:39;2.00;89.20
3648;DHT22;1840;48.892;15.312;2023-03-01T10:02:23;2.10;89.10
3648;DHT22;1840;48.892;15.312;2023-03-01T10:04:54;2.10;89.20
3648;DHT22;1840;48.892;15.312;2023-03-01T10:07:32;2.20;89.00
3648;DHT22;1840;48.892;15.312;2023-03-01T10:10:10;2.10;88.40
3648;DHT22;1840;48.892;15.312;2023-03-01T10:12:44;2.00;88.90
3648;DHT22;1840;48.892;15.312;2023-03-01T10:15:15;2.10;88.80
3648;DHT22;1840;48.892;15.312;2023-03-01T10:17:48;2.30;87.70
3648;DHT22;1840;48.892;15.312;2023-03-01T10:20:22;2.20;87.50
3648;DHT22;1840;48.892;15.312;2023-03-01T10:22:52;2.20;87.40
3648;DHT22;1840;48.892;15.312;2023-03-01T10:25:44;1.50;88.40
3648;DHT22;1840;48.892;15.312;2023-03-01T10:28:17;1.70;88.50
3648;DHT22;1840;48.892;15.312;2023-03-01T10:30:47;1.60;89.00
3648;DHT22;1840;48.892;15.312;2023-03-01T10:33:19;1.90;87.90
3648;DHT22;1840;48.892;15.312;2023-03-01T10:35:48;2.20;87.30
3648;DHT22;1840;48.892;15.312;2023-03-01T10:38:18;2.20;86.40
3648;DHT22;1840;48.892;15.312;2023-03-01T10:40:52;2.10;87.30
3648;DHT22;1840;48.892;15.312;2023-03-01T10:43:21;2.20;86.90
3648;DHT22;1840;48.892;15.312;2023-03-01T10:45:50;2.40;87.40
3648;DHT22;1840;48.892;15.312;2023-03-01T10:48:20;2.30;86.80
3648;DHT22;1840;48.892;15.312;2023-03-01T10:51:05;2.80;86.70
3648;DHT22;1840;48.892;15.312;2023-03-01T10:53:37;2.80;85.60
3648;DHT22;1840;48.892;15.312;2023-03-01T10:56:08;2.80;85.70
3648;DHT22;1840;48.892;15.312;2023-03-01T10:58:37;3.00;86.00
3648;DHT22;1840;48.892;15.312;2023-03-01T11:01:24;3.10;84.50
3648;DHT22;1840;48.892;15.312;2023-03-01T11:04:10;2.90;85.80
3648;DHT22;1840;48.892;15.312;2023-03-01T11:06:39;2.80;86.10
3648;DHT22;1840;48.892;15.312;2023-03-01T11:09:16;2.80;86.40
3648;DHT22;1840;48.892;15.312;2023-03-01T11:11:46;3.00;86.40
3648;DHT22;1840;48.892;15.312;2023-03-01T11:14:17;3.30;85.40
3648;DHT22;1840;48.892;15.312;2023-03-01T11:17:01;3.60;85.10
3648;DHT22;1840;48.892;15.312;2023-03-01T11:19:30;3.80;84.20
3648;DHT22;1840;48.892;15.312;2023-03-01T11:22:03;4.00;84.10
3648;DHT22;1840;48.892;15.312;2023-03-01T11:24:40;3.70;85.10
3648;DHT22;1840;48.892;15.312;2023-03-01T11:27:16;3.80;83.60
3648;DHT22;1840;48.892;15.312;2023-03-01T11:29:46;3.80;84.50
3648;DHT22;1840;48.892;15.312;2023-03-01T11:32:19;3.20;84.00
3648;DHT22;1840;48.892;15.312;2023-03-01T11:34:52;3.10;85.70
3648;DHT22;1840;48.892;15.312;2023-03-01T11:37:32;3.00;85.10
3648;DHT22;1840;48.892;15.312;2023-03-01T11:40:12;3.50;85.90
3648;DHT22;1840;48.892;15.312;2023-03-01T11:42:48;3.90;85.50
3648;DHT22;1840;48.892;15.312;2023-03-01T11:45:19;3.90;83.60
3648;DHT22;1840;48.892;15.312;2023-03-01T11:47:59;3.50;84.80
3648;DHT22;1840;48.892;15.312;2023-03-01T11:50:35;3.60;83.30
3648;DHT22;1840;48.892;15.312;2023-03-01T11:56:13;2.60;85.20
3648;DHT22;1840;48.892;15.312;2023-03-01T11:58:59;2.80;85.20
3648;DHT22;1840;48.892;15.312;2023-03-01T12:01:49;2.30;85.60
3648;DHT22;1840;48.892;15.312;2023-03-01T12:04:33;2.10;86.80
3648;DHT22;1840;48.892;15.312;2023-03-01T12:07:05;1.90;86.60
3648;DHT22;1840;48.892;15.312;2023-03-01T12:09:48;2.00;86.40
3648;DHT22;1840;48.892;15.312;2023-03-01T12:12:36;1.80;87.10
3648;DHT22;1840;48.892;15.312;2023-03-01T12:18:19;2.00;88.00
3648;DHT22;1840;48.892;15.312;2023-03-01T12:20:58;2.20;87.80
3648;DHT22;1840;48.892;15.312;2023-03-01T12:26:29;2.50;86.90
3648;DHT22;1840;48.892;15.312;2023-03-01T12:29:13;2.30;88.40
3648;DHT22;1840;48.892;15.312;2023-03-01T12:32:02;2.60;87.50
3648;DHT22;1840;48.892;15.312;2023-03-01T12:34:55;3.00;87.80
3648;DHT22;1840;48.892;15.312;2023-03-01T12:37:36;2.90;86.30
3648;DHT22;1840;48.892;15.312;2023-03-01T12:43:22;2.70;87.20
3648;DHT22;1840;48.892;15.312;2023-03-01T12:46:05;2.60;86.30
3648;DHT22;1840;48.892;15.312;2023-03-01T12:48:46;2.40;86.20
3648;DHT22;1840;48.892;15.312;2023-03-01T12:51:17;2.70;87.30
3648;DHT22;1840;48.892;15.312;2023-03-01T12:53:48;2.70;86.20
3648;DHT22;1840;48.892;15.312;2023-03-01T12:56:19;2.20;86.20
3648;DHT22;1840;48.892;15.312;2023-03-01T12:58:57;1.90;87.00
3648;DHT22;1840;48.892;15.312;2023-03-01T13:01:35;1.80;87.90
3648;DHT22;1840;48.892;15.312;2023-03-01T13:04:15;2.40;88.10
3648;DHT22;1840;48.892;15.312;2023-03-01T13:06:52;2.60;86.40
3648;DHT22;1840;48.892;15.312;2023-03-01T13:09:28;2.80;86.30
3648;DHT22;1840;48.892;15.312;2023-03-01T13:11:58;2.60;85.70
3648;DHT22;1840;48.892;15.312;2023-03-01T13:14:45;2.30;86.40
3648;DHT22;1840;48.892;15.312;2023-03-01T13:17:33;2.40;86.80
3648;DHT22;1840;48.892;15.312;2023-03-01T13:20:15;2.70;86.50
3648;DHT22;1840;48.892;15.312;2023-03-01T13:22:45;2.80;86.70
3648;DHT22;1840;48.892;15.312;2023-03-01T13:25:20;2.80;86.20
3648;DHT22;1840;48.892;15.312;2023-03-01T13:30:55;2.80;85.60
3648;DHT22;1840;48.892;15.312;2023-03-01T13:33:44;3.10;85.30
3648;DHT22;1840;48.892;15.312;2023-03-01T13:36:48;3.10;84.70
3648;DHT22;1840;48.892;15.312;2023-03-01T13:39:30;2.90;85.20
3648;DHT22;1840;48.892;15.312;2023-03-01T13:42:00;2.50;85.80
3648;DHT22;1840;48.892;15.312;2023-03-01T13:44:32;2.40;86.40
3648;DHT22;1840;48.892;15.312;2023-03-01T13:47:12;2.40;86.60
3648;DHT22;1840;48.892;15.312;2023-03-01T13:49:47;2.40;86.60
3648;DHT22;1840;48.892;15.312;2023-03-01T13:52:37;2.40;86.30
3648;DHT22;1840;48.892;15.312;2023-03-01T13:55:17;2.60;86.80
3648;DHT22;1840;48.892;15.312;2023-03-01T13:57:48;2.70;86.70
3648;DHT22;1840;48.892;15.312;2023-03-01T14:00:29;2.60;86.30
3648;DHT22;1840;48.892;15.312;2023-03-01T14:03:08;2.70;86.70
3648;DHT22;1840;48.892;15.312;2023-03-01T14:05:39;3.00;86.60
3648;DHT22;1840;48.892;15.312;2023-03-01T14:08:20;3.00;86.50
3648;DHT22;1840;48.892;15.312;2023-03-01T14:10:58;2.90;85.80
3648;DHT22;1840;48.892;15.312;2023-03-01T14:13:43;2.70;86.30
3648;DHT22;1840;48.892;15.312;2023-03-01T14:16:25;2.80;86.90
3648;DHT22;1840;48.892;15.312;2023-03-01T14:19:10;2.70;87.10
3648;DHT22;1840;48.892;15.312;2023-03-01T14:22:10;2.60;87.10
3648;DHT22;1840;48.892;15.312;2023-03-01T14:24:46;2.60;87.50
3648;DHT22;1840;48.892;15.312;2023-03-01T14:27:16;2.50;86.70
3648;DHT22;1840;48.892;15.312;2023-03-01T14:29:54;2.70;86.60
3648;DHT22;1840;48.892;15.312;2023-03-01T14:32:25;2.70;87.00
3648;DHT22;1840;48.892;15.312;2023-03-01T14:34:55;2.70;86.40
3648;DHT22;1840;48.892;15.312;2023-03-01T14:37:27;2.40;87.10
3648;DHT22;1840;48.892;15.312;2023-03-01T14:39:56;2.30;87.40
3648;DHT22;1840;48.892;15.312;2023-03-01T14:42:28;2.30;88.10
3648;DHT22;1840;48.892;15.312;2023-03-01T14:44:58;2.50;87.40
3648;DHT22;1840;48.892;15.312;2023-03-01T14:47:29;2.80;86.90
3648;DHT22;1840;48.892;15.312;2023-03-01T14:50:00;2.80;86.30
3648;DHT22;1840;48.892;15.312;2023-03-01T14:52:34;2.80;87.60
3648;DHT22;1840;48.892;15.312;2023-03-01T14:55:06;2.70;87.20
3648;DHT22;1840;48.892;15.312;2023-03-01T14:57:35;2.60;87.10
3648;DHT22;1840;48.892;15.312;2023-03-01T15:00:06;2.70;87.30
3648;DHT22;1840;48.892;15.312;2023-03-01T15:02:35;2.90;86.80
3648;DHT22;1840;48.892;15.312;2023-03-01T15:05:08;2.70;86.10
3648;DHT22;1840;48.892;15.312;2023-03-01T15:07:40;2.70;86.80
3648;DHT22;1840;48.892;15.312;2023-03-01T15:12:47;2.90;86.10
3648;DHT22;1840;48.892;15.312;2023-03-01T15:15:38;2.60;86.40
3648;DHT22;1840;48.892;15.312;2023-03-01T15:18:15;2.60;86.50
3648;DHT22;1840;48.892;15.312;2023-03-01T15:20:44;2.80;86.40
3648;DHT22;1840;48.892;15.312;2023-03-01T15:23:21;2.70;86.60
3648;DHT22;1840;48.892;15.312;2023-03-01T15:25:51;2.40;86.90
3648;DHT22;1840;48.892;15.312;2023-03-01T15:28:25;2.50;86.90
3648;DHT22;1840;48.892;15.312;2023-03-01T15:30:58;2.80;86.90
3648;DHT22;1840;48.892;15.312;2023-03-01T15:33:31;2.80;86.70
3648;DHT22;1840;48.892;15.312;2023-03-01T15:36:01;3.00;86.30
3648;DHT22;1840;48.892;15.312;2023-03-01T15:38:33;3.00;86.60
3648;DHT22;1840;48.892;15.312;2023-03-01T15:41:21;3.10;86.60
3648;DHT22;1840;48.892;15.312;2023-03-01T15:43:50;3.00;86.10
3648;DHT22;1840;48.892;15.312;2023-03-01T15:46:23;3.00;86.20
3648;DHT22;1840;48.892;15.312;2023-03-01T15:48:54;2.80;86.80
3648;DHT22;1840;48.892;15.312;2023-03-01T15:51:34;2.80;87.10
3648;DHT22;1840;48.892;15.312;2023-03-01T15:54:06;2.80;87.20
3648;DHT22;1840;48.892;15.312;2023-03-01T15:56:40;2.70;87.20
3648;DHT22;1840;48.892;15.312;2023-03-01T15:59:09;2.60;88.20
3648;DHT22;1840;48.892;15.312;2023-03-01T16:01:40;2.70;87.90
3648;DHT22;1840;48.892;15.312;2023-03-01T16:04:09;2.70;88.50
3648;DHT22;1840;48.892;15.312;2023-03-01T16:06:39;2.60;87.80
3648;DHT22;1840;48.892;15.312;2023-03-01T16:09:08;2.60;88.60
3648;DHT22;1840;48.892;15.312;2023-03-01T16:11:39;2.70;88.30
3648;DHT22;1840;48.892;15.312;2023-03-01T16:14:09;2.60;89.20
3648;DHT22;1840;48.892;15.312;2023-03-01T16:16:37;2.60;88.60
3648;DHT22;1840;48.892;15.312;2023-03-01T16:19:06;2.60;88.60
3648;DHT22;1840;48.892;15.312;2023-03-01T16:21:34;2.50;88.30
3648;DHT22;1840;48.892;15.312;2023-03-01T16:24:02;2.40;88.90
3648;DHT22;1840;48.892;15.312;2023-03-01T16:26:32;2.10;89.50
3648;DHT22;1840;48.892;15.312;2023-03-01T16:29:00;2.20;89.30
3648;DHT22;1840;48.892;15.312;2023-03-01T16:31:28;2.10;89.30
3648;DHT22;1840;48.892;15.312;2023-03-01T16:33:58;2.10;89.20
3648;DHT22;1840;48.892;15.312;2023-03-01T16:36:27;2.00;89.20
3648;DHT22;1840;48.892;15.312;2023-03-01T16:38:58;1.90;89.30
3648;DHT22;1840;48.892;15.312;2023-03-01T16:41:27;1.80;89.50
3648;DHT22;1840;48.892;15.312;2023-03-01T16:43:57;1.80;89.60